Time;durP1;ratioP1;P1;durP2;ratioP2;P2;SDS_P1;SDS_P2;PMS_P1;PMS_P2;Temp;Humidity;BMP_temperature;BMP_pressure;BME280_temperature;BME280_humidity;BME280_pressure;Samples;Min_cycle;Max_cycle;Signal;HPM_P1;HPM_P2
2023/12/01 00:00:18;;;;;;;;;;;;;;;-4.47;78.89;99962.04;106559;1254;124871;-83
2023/12/01 00:03:05;;;;;;;;;;;;;;;-4.50;78.81;99959.30;106688;1254;73482;-79
2023/12/01 00:05:32;;;;;;;;;;;;;;;-4.51;78.96;99960.55;106566;1254;125968;-80
2023/12/01 00:07:58;;;;;;;;;;;;;;;-4.52;78.87;99957.22;106831;1258;61232;-79
2023/12/01 00:10:25;;;;;;;;;;;;;;;-4.53;79.13;99954.09;106552;1260;125208;-79
2023/12/01 00:12:52;;;;;;;;;;;;;;;-4.53;79.05;99950.81;106714;1255;64703;-79
2023/12/01 00:15:19;;;;;;;;;;;;;;;-4.54;79.00;99952.81;106727;1254;73850;-79
2023/12/01 00:17:46;;;;;;;;;;;;;;;-4.55;78.95;99955.29;106626;1257;124826;-79
2023/12/01 00:20:12;;;;;;;;;;;;;;;-4.56;79.24;99953.37;106677;1257;61347;-79
2023/12/01 00:22:39;;;;;;;;;;;;;;;-4.57;79.12;99951.40;106703;1254;125152;-80
2023/12/01 00:25:06;;;;;;;;;;;;;;;-4.58;79.14;99949.59;106761;1254;64981;-79
2023/12/01 00:27:33;;;;;;;;;;;;;;;-4.59;79.17;99950.23;106745;1255;71550;-79
2023/12/01 00:30:00;;;;;;;;;;;;;;;-4.61;79.12;99949.94;106675;1260;125136;-78
2023/12/01 00:32:26;;;;;;;;;;;;;;;-4.64;79.23;99948.52;106686;1257;60121;-79
2023/12/01 00:34:53;;;;;;;;;;;;;;;-4.65;79.01;99945.64;106719;1253;124774;-78
2023/12/01 00:37:20;;;;;;;;;;;;;;;-4.68;79.13;99945.14;106830;1258;66273;-78
2023/12/01 00:39:47;;;;;;;;;;;;;;;-4.71;79.10;99949.02;106780;1259;72721;-78
2023/12/01 00:42:14;;;;;;;;;;;;;;;-4.74;79.02;99946.92;106074;1259;125278;-83
2023/12/01 00:44:41;;;;;;;;;;;;;;;-4.76;79.17;99948.69;106202;1259;61359;-83
2023/12/01 00:47:07;;;;;;;;;;;;;;;-4.77;79.07;99949.07;106768;1257;125074;-83
2023/12/01 00:49:34;;;;;;;;;;;;;;;-4.80;79.21;99945.65;106771;1254;65027;-83
2023/12/01 00:52:01;;;;;;;;;;;;;;;-4.82;79.20;99940.88;106697;1254;124727;-83
2023/12/01 00:54:28;;;;;;;;;;;;;;;-4.83;79.29;99938.71;106656;1254;61257;-84
2023/12/01 00:56:54;;;;;;;;;;;;;;;-4.85;79.40;99937.86;106810;1255;61777;-83
2023/12/01 00:59:21;;;;;;;;;;;;;;;-4.88;79.38;99937.86;106782;1254;123770;-84
2023/12/01 01:01:48;;;;;;;;;;;;;;;-4.92;79.26;99937.63;106700;1256;64921;-83
2023/12/01 01:04:14;;;;;;;;;;;;;;;-4.95;79.23;99941.27;106703;1254;123859;-82
2023/12/01 01:06:41;;;;;;;;;;;;;;;-4.99;79.23;99940.32;106824;1254;61252;-82
2023/12/01 01:09:09;;;;;;;;;;;;;;;-5.04;79.10;99941.67;106738;1254;61360;-84
2023/12/01 01:11:35;;;;;;;;;;;;;;;-5.09;79.08;99942.88;106699;1258;124140;-83
2023/12/01 01:14:02;;;;;;;;;;;;;;;-5.13;79.18;99943.20;106859;1254;65187;-83
2023/12/01 01:16:29;;;;;;;;;;;;;;;-5.19;79.08;99941.09;106709;1254;124234;-83
2023/12/01 01:18:55;;;;;;;;;;;;;;;-5.24;79.13;99942.41;106758;1254;59397;-83
2023/12/01 01:21:23;;;;;;;;;;;;;;;-5.29;79.27;99944.08;106811;1260;61318;-83
2023/12/01 01:23:50;;;;;;;;;;;;;;;-5.34;79.29;99944.19;106499;1258;124289;-83
2023/12/01 01:26:17;;;;;;;;;;;;;;;-5.38;79.16;99943.60;106656;1254;65456;-83
2023/12/01 01:28:44;;;;;;;;;;;;;;;-5.41;79.39;99942.52;106419;1260;124086;-82
2023/12/01 01:31:10;;;;;;;;;;;;;;;-5.44;79.43;99941.28;106745;1254;60319;-81
2023/12/01 01:33:37;;;;;;;;;;;;;;;-5.48;79.50;99936.34;106715;1254;61413;-82
2023/12/01 01:36:04;;;;;;;;;;;;;;;-5.52;79.58;99938.13;106062;1256;123917;-81
2023/12/01 01:38:31;;;;;;;;;;;;;;;-5.55;79.35;99935.96;106395;1254;65069;-82
2023/12/01 01:40:57;;;;;;;;;;;;;;;-5.59;79.39;99935.20;106047;1258;123881;-82
2023/12/01 01:43:24;;;;;;;;;;;;;;;-5.62;79.57;99934.13;106143;1254;61183;-82
2023/12/01 01:45:58;;;;;;;;;;;;;;;-5.66;79.66;99930.09;106125;1254;61170;-84
2023/12/01 01:48:24;;;;;;;;;;;;;;;-5.69;79.71;99924.74;106895;1254;74429;-84
2023/12/01 01:50:51;;;;;;;;;;;;;;;-5.71;79.87;99925.92;106882;1254;66377;-84
2023/12/01 01:53:18;;;;;;;;;;;;;;;-5.73;79.75;99922.83;106531;1254;124127;-83
2023/12/01 01:55:45;;;;;;;;;;;;;;;-5.75;79.84;99923.38;106805;1255;61250;-83
2023/12/01 01:58:12;;;;;;;;;;;;;;;-5.77;79.91;99923.04;106767;1254;124264;-83
2023/12/01 02:00:39;;;;;;;;;;;;;;;-5.78;80.16;99922.45;106747;1254;73434;-83
2023/12/01 02:03:05;;;;;;;;;;;;;;;-5.79;80.10;99920.20;106737;1254;65173;-83
2023/12/01 02:05:34;;;;;;;;;;;;;;;-5.80;80.14;99918.35;106734;1255;124039;-84
2023/12/01 02:08:19;;;;;;;;;;;;;;;-5.81;80.11;99915.59;106881;1255;61347;-83
2023/12/01 02:10:45;;;;;;;;;;;;;;;-5.82;80.31;99912.27;106773;1254;124043;-83
2023/12/01 02:13:14;;;;;;;;;;;;;;;-5.82;80.17;99917.17;106920;1254;74675;-82
2023/12/01 02:15:42;;;;;;;;;;;;;;;-5.83;80.06;99920.20;107154;1258;66289;-83
2023/12/01 02:18:28;;;;;;;;;;;;;;;-5.83;80.20;99921.06;106748;1258;124021;-83
2023/12/01 02:20:55;;;;;;;;;;;;;;;-5.83;80.09;99925.64;106695;1254;61366;-84
2023/12/01 02:23:21;;;;;;;;;;;;;;;-5.83;80.37;99921.23;106676;1254;125000;-83
2023/12/01 02:25:48;;;;;;;;;;;;;;;-5.84;80.35;99919.61;106726;1255;74661;-83
2023/12/01 02:28:15;;;;;;;;;;;;;;;-5.87;80.06;99916.86;106694;1254;124198;-84
2023/12/01 02:30:42;;;;;;;;;;;;;;;-5.91;80.06;99915.39;106721;1257;71408;-84
2023/12/01 02:33:15;;;;;;;;;;;;;;;-5.94;80.04;99915.27;106829;1256;59501;-84
2023/12/01 02:35:45;;;;;;;;;;;;;;;-5.97;80.12;99915.73;106622;1254;124021;-83
2023/12/01 02:38:13;;;;;;;;;;;;;;;-5.99;80.09;99917.30;106794;1254;73621;-84
2023/12/01 02:40:43;;;;;;;;;;;;;;;-6.01;80.25;99916.14;106605;1257;124979;-84
2023/12/01 02:43:13;;;;;;;;;;;;;;;-6.03;80.39;99915.29;106657;1256;71130;-84
2023/12/01 02:45:39;;;;;;;;;;;;;;;-6.03;80.46;99919.05;106810;1254;59953;-83
2023/12/01 02:48:06;;;;;;;;;;;;;;;-6.03;80.52;99919.23;106712;1254;124549;-83
2023/12/01 02:50:33;;;;;;;;;;;;;;;-6.03;80.62;99917.36;106763;1255;74709;-84
2023/12/01 02:53:06;;;;;;;;;;;;;;;-6.00;80.73;99918.06;106653;1254;124832;-83
2023/12/01 02:55:33;;;;;;;;;;;;;;;-5.97;80.79;99919.70;106673;1260;71416;-83
2023/12/01 02:57:59;;;;;;;;;;;;;;;-5.94;80.84;99921.29;106730;1254;125677;-82
2023/12/01 03:00:26;;;;;;;;;;;;;;;-5.91;80.99;99920.83;106885;1256;61395;-83
2023/12/01 03:02:53;;;;;;;;;;;;;;;-5.87;81.04;99917.89;106903;1255;73507;-84
2023/12/01 03:05:20;;;;;;;;;;;;;;;-5.81;81.23;99915.76;106770;1253;124705;-84
2023/12/01 03:07:47;;;;;;;;;;;;;;;-5.75;81.27;99919.13;106912;1258;71395;-83
2023/12/01 03:10:14;;;;;;;;;;;;;;;-5.69;81.32;99918.52;106768;1255;124990;-84
2023/12/01 03:12:41;;;;;;;;;;;;;;;-5.62;81.50;99920.23;106813;1254;59340;-83
2023/12/01 03:15:09;;;;;;;;;;;;;;;-5.53;81.72;99916.99;106689;1254;74563;-84
2023/12/01 03:17:39;;;;;;;;;;;;;;;-5.39;82.03;99913.55;106601;1254;124442;-83
2023/12/01 03:20:14;;;;;;;;;;;;;;;-5.18;82.63;99911.20;106820;1254;72404;-84
2023/12/01 03:22:41;;;;;;;;;;;;;;;-4.92;82.92;99907.13;106824;1255;127685;-83
2023/12/01 03:25:11;;;;;;;;;;;;;;;-4.74;83.14;99906.88;106754;1260;60172;-83
2023/12/01 03:27:40;;;;;;;;;;;;;;;-4.60;83.02;99905.48;106789;1254;73629;-83
2023/12/01 03:30:13;;;;;;;;;;;;;;;-4.48;83.01;99910.25;106694;1258;124586;-84
2023/12/01 03:32:46;;;;;;;;;;;;;;;-4.38;82.89;99907.49;106713;1256;72404;-83
2023/12/01 03:35:13;;;;;;;;;;;;;;;-4.26;82.94;99908.23;106710;1253;124453;-84
2023/12/01 03:37:40;;;;;;;;;;;;;;;-4.10;82.99;99906.05;106849;1254;61135;-84
2023/12/01 03:40:08;;;;;;;;;;;;;;;-3.95;83.05;99906.09;106549;1254;124665;-84
2023/12/01 03:42:39;;;;;;;;;;;;;;;-3.80;83.05;99905.02;106648;1256;66221;-84
2023/12/01 03:45:06;;;;;;;;;;;;;;;-3.66;83.07;99900.83;106595;1254;72774;-84
2023/12/01 03:47:34;;;;;;;;;;;;;;;-3.53;83.01;99897.55;106747;1255;124619;-79
2023/12/01 03:50:02;;;;;;;;;;;;;;;-3.41;82.97;99898.70;106736;1254;61325;-83
2023/12/01 03:52:29;;;;;;;;;;;;;;;-3.32;82.89;99897.60;106670;1254;124816;-83
2023/12/01 03:54:55;;;;;;;;;;;;;;;-3.23;82.84;99897.88;106711;1254;65385;-83
2023/12/01 03:57:22;;;;;;;;;;;;;;;-3.13;82.83;99897.79;106726;1254;71383;-83
2023/12/01 03:59:49;;;;;;;;;;;;;;;-3.06;82.74;99899.45;106636;1258;124416;-83
2023/12/01 04:02:15;;;;;;;;;;;;;;;-3.02;82.57;99897.50;106594;1255;61319;-83
2023/12/01 04:04:42;;;;;;;;;;;;;;;-2.98;82.59;99899.16;106640;1255;124616;-83
2023/12/01 04:07:09;;;;;;;;;;;;;;;-2.94;82.58;99899.74;106758;1258;66293;-83
2023/12/01 04:09:35;;;;;;;;;;;;;;;-2.91;82.62;99894.55;106656;1254;71372;-84
2023/12/01 04:12:02;;;;;;;;;;;;;;;-2.89;82.45;99900.73;106653;1254;124652;-83
2023/12/01 04:14:29;;;;;;;;;;;;;;;-2.86;82.41;99897.86;106704;1254;61385;-84
2023/12/01 04:16:56;;;;;;;;;;;;;;;-2.82;82.47;99892.95;106703;1256;124597;-83
2023/12/01 04:19:23;;;;;;;;;;;;;;;-2.78;82.44;99886.38;106761;1254;66218;-84
2023/12/01 04:21:52;;;;;;;;;;;;;;;-2.76;82.34;99888.22;106804;1254;71348;-84
2023/12/01 04:24:19;;;;;;;;;;;;;;;-2.73;82.27;99892.70;106647;1256;124415;-83
2023/12/01 04:26:48;;;;;;;;;;;;;;;-2.71;82.35;99893.48;106819;1255;60057;-84
2023/12/01 04:29:15;;;;;;;;;;;;;;;-2.70;82.16;99889.95;106745;1255;124437;-84
2023/12/01 04:31:41;;;;;;;;;;;;;;;-2.71;82.00;99891.60;106843;1255;66506;-83
2023/12/01 04:34:08;;;;;;;;;;;;;;;-2.70;81.91;99899.38;106634;1254;125459;-83
2023/12/01 04:36:34;;;;;;;;;;;;;;;-2.69;82.03;99899.59;106829;1257;61326;-83
2023/12/01 04:39:03;;;;;;;;;;;;;;;-2.69;81.86;99899.40;106757;1255;61293;-84
2023/12/01 04:41:30;;;;;;;;;;;;;;;-2.70;81.82;99896.77;106490;1254;124072;-83
2023/12/01 04:43:57;;;;;;;;;;;;;;;-2.72;81.89;99888.98;106700;1254;65496;-83
2023/12/01 04:46:23;;;;;;;;;;;;;;;-2.74;81.78;99887.29;106560;1254;124125;-83
2023/12/01 04:48:52;;;;;;;;;;;;;;;-2.77;81.82;99886.22;106658;1254;61148;-84
2023/12/01 04:51:19;;;;;;;;;;;;;;;-2.82;81.61;99889.69;106811;1255;61357;-85
2023/12/01 04:53:48;;;;;;;;;;;;;;;-2.90;81.29;99888.30;106491;1254;124079;-84
2023/12/01 04:56:14;;;;;;;;;;;;;;;-3.01;81.31;99892.77;106578;1258;66250;-84
2023/12/01 04:58:41;;;;;;;;;;;;;;;-3.10;81.07;99894.06;106429;1260;124797;-84
2023/12/01 05:01:08;;;;;;;;;;;;;;;-3.18;81.36;99889.98;106754;1254;61186;-84
2023/12/01 05:03:35;;;;;;;;;;;;;;;-3.25;81.31;99884.66;106659;1254;60892;-84
2023/12/01 05:06:02;;;;;;;;;;;;;;;-3.34;81.37;99882.93;106766;1255;123962;-83
2023/12/01 05:08:28;;;;;;;;;;;;;;;-3.42;81.34;99881.51;106158;1258;66201;-84
2023/12/01 05:10:56;;;;;;;;;;;;;;;-3.51;81.29;99884.31;106657;1254;124049;-84
2023/12/01 05:13:23;;;;;;;;;;;;;;;-3.61;81.32;99892.45;106861;1255;61291;-84
2023/12/01 05:15:50;;;;;;;;;;;;;;;-3.68;81.42;99893.13;106995;1256;61195;-83
2023/12/01 05:18:16;;;;;;;;;;;;;;;-3.76;81.61;99894.19;106672;1253;124111;-80
2023/12/01 05:20:43;;;;;;;;;;;;;;;-3.80;81.86;99893.17;106859;1254;66010;-80
2023/12/01 05:23:10;;;;;;;;;;;;;;;-3.85;81.94;99891.46;107107;1254;125258;-81
2023/12/01 05:25:44;;;;;;;;;;;;;;;-3.91;81.92;99888.67;107058;1256;59292;-80
2023/12/01 05:28:11;;;;;;;;;;;;;;;-3.95;82.06;99887.20;108083;1258;125041;-85
2023/12/01 05:30:41;;;;;;;;;;;;;;;-3.98;82.15;99886.33;106838;1254;73380;-84
2023/12/01 05:33:08;;;;;;;;;;;;;;;-4.00;82.25;99882.25;106593;1255;66012;-85
2023/12/01 05:35:35;;;;;;;;;;;;;;;-4.03;82.38;99882.59;106652;1255;125693;-85
2023/12/01 05:38:04;;;;;;;;;;;;;;;-4.01;82.42;99882.88;106871;1254;59522;-84
2023/12/01 05:40:34;;;;;;;;;;;;;;;-4.02;82.40;99889.29;106525;1254;126911;-79
2023/12/01 05:43:00;;;;;;;;;;;;;;;-4.05;82.50;99892.83;106691;1260;72543;-78
2023/12/01 05:45:28;;;;;;;;;;;;;;;-4.08;82.48;99890.61;106845;1255;66545;-76
2023/12/01 05:47:56;;;;;;;;;;;;;;;-4.10;82.42;99890.61;106794;1254;124701;-78
2023/12/01 05:50:26;;;;;;;;;;;;;;;-4.13;82.55;99890.07;106830;1254;59422;-77
2023/12/01 05:52:53;;;;;;;;;;;;;;;-4.15;82.47;99894.74;106442;1255;130649;-78
2023/12/01 05:55:21;;;;;;;;;;;;;;;-4.16;82.56;99897.78;106757;1260;74752;-83
2023/12/01 05:57:48;;;;;;;;;;;;;;;-4.18;82.54;99897.33;106804;1258;64704;-86
2023/12/01 06:00:19;;;;;;;;;;;;;;;-4.17;82.65;99902.82;106617;1255;124227;-83
2023/12/01 06:02:47;;;;;;;;;;;;;;;-4.18;82.68;99907.91;106788;1254;61277;-83
2023/12/01 06:05:15;;;;;;;;;;;;;;;-4.18;82.73;99913.53;106382;1254;124974;-76
2023/12/01 06:07:42;;;;;;;;;;;;;;;-4.18;82.88;99912.86;106128;1254;73382;-82
2023/12/01 06:10:09;;;;;;;;;;;;;;;-4.18;82.91;99914.58;106636;1255;125210;-75
2023/12/01 06:12:39;;;;;;;;;;;;;;;-4.18;82.89;99916.10;106144;1258;71416;-75
2023/12/01 06:15:06;;;;;;;;;;;;;;;-4.19;82.94;99914.84;106056;1254;61351;-75
2023/12/01 06:17:33;;;;;;;;;;;;;;;-4.20;82.90;99912.91;105936;1258;124344;-75
2023/12/01 06:20:00;;;;;;;;;;;;;;;-4.19;83.01;99912.79;106043;1258;73590;-75
2023/12/01 06:22:27;;;;;;;;;;;;;;;-4.17;83.15;99909.34;106013;1256;124673;-74
2023/12/01 06:24:54;;;;;;;;;;;;;;;-4.14;83.22;99908.16;106162;1253;71708;-82
2023/12/01 06:27:22;;;;;;;;;;;;;;;-4.11;83.25;99909.40;106998;1254;61290;-82
2023/12/01 06:29:51;;;;;;;;;;;;;;;-4.08;83.21;99912.36;107119;1254;124498;-82
2023/12/01 06:32:17;;;;;;;;;;;;;;;-4.06;83.32;99916.59;107566;1254;73495;-83
2023/12/01 06:34:44;;;;;;;;;;;;;;;-4.02;83.38;99918.77;107195;1255;124802;-83
2023/12/01 06:37:11;;;;;;;;;;;;;;;-3.97;83.55;99919.29;107198;1253;72703;-83
2023/12/01 06:39:39;;;;;;;;;;;;;;;-3.93;83.61;99924.73;106897;1256;59432;-83
2023/12/01 06:42:08;;;;;;;;;;;;;;;-3.87;83.59;99941.93;106661;1255;124553;-81
2023/12/01 06:44:36;;;;;;;;;;;;;;;-3.78;83.72;99942.18;106657;1254;74557;-81
2023/12/01 06:47:03;;;;;;;;;;;;;;;-3.67;83.86;99942.21;106843;1258;124910;-81
2023/12/01 06:49:32;;;;;;;;;;;;;;;-3.56;83.96;99937.34;106968;1255;72671;-85
2023/12/01 06:51:59;;;;;;;;;;;;;;;-3.43;84.01;99937.73;106642;1256;206415;-84
2023/12/01 06:54:27;;;;;;;;;;;;;;;-3.30;83.88;99934.96;106708;1254;60136;-84
2023/12/01 06:56:54;;;;;;;;;;;;;;;-3.20;83.83;99946.10;106713;1254;75024;-81
2023/12/01 06:59:21;;;;;;;;;;;;;;;-3.13;83.67;99951.02;106750;1254;124871;-82
2023/12/01 07:01:48;;;;;;;;;;;;;;;-3.10;83.42;99950.90;106831;1254;71458;-82
2023/12/01 07:04:15;;;;;;;;;;;;;;;-3.08;83.19;99953.42;107436;1256;125971;-82
2023/12/01 07:06:46;;;;;;;;;;;;;;;-3.05;83.04;99955.45;106678;1256;61243;-82
2023/12/01 07:09:17;;;;;;;;;;;;;;;-3.04;82.92;99952.14;107987;1253;73404;-82
2023/12/01 07:11:44;;;;;;;;;;;;;;;-3.02;82.86;99955.54;107010;1254;124617;-83
2023/12/01 07:14:12;;;;;;;;;;;;;;;-2.97;82.88;99953.98;106769;1256;72798;-82
2023/12/01 07:16:42;;;;;;;;;;;;;;;-2.93;82.81;99956.64;106832;1254;124116;-80
2023/12/01 07:19:11;;;;;;;;;;;;;;;-2.90;82.65;99956.13;106790;1258;61249;-81
2023/12/01 07:21:39;;;;;;;;;;;;;;;-2.88;82.59;99960.20;106683;1254;73638;-81
2023/12/01 07:24:09;;;;;;;;;;;;;;;-2.88;82.61;99963.98;106521;1255;123738;-81
2023/12/01 07:26:42;;;;;;;;;;;;;;;-2.88;82.53;99971.20;106998;1254;72741;-83
2023/12/01 07:29:09;;;;;;;;;;;;;;;-2.86;82.49;99971.15;106585;1256;123861;-83
2023/12/01 07:31:35;;;;;;;;;;;;;;;-2.83;82.60;99972.89;106764;1258;59435;-83
2023/12/01 07:34:03;;;;;;;;;;;;;;;-2.79;82.60;99971.79;106859;1256;123975;-83
2023/12/01 07:36:30;;;;;;;;;;;;;;;-2.69;82.68;99975.02;106666;1256;66363;-83
2023/12/01 07:38:56;;;;;;;;;;;;;;;-2.53;82.88;99979.95;106752;1254;72738;-83
2023/12/01 07:41:23;;;;;;;;;;;;;;;-2.35;82.91;99976.82;106609;1254;123761;-83
2023/12/01 07:43:52;;;;;;;;;;;;;;;-2.17;83.08;99973.88;106824;1254;61315;-80
2023/12/01 07:46:20;;;;;;;;;;;;;;;-1.99;83.01;99967.58;106686;1258;125453;-79
2023/12/01 07:48:46;;;;;;;;;;;;;;;-1.87;82.75;99963.20;106767;1254;66231;-81
2023/12/01 07:51:13;;;;;;;;;;;;;;;-1.78;82.70;99960.61;106674;1255;71208;-82
2023/12/01 07:53:40;;;;;;;;;;;;;;;-1.72;82.37;99959.95;106886;1255;124555;-82
2023/12/01 07:56:07;;;;;;;;;;;;;;;-1.67;82.42;99958.49;106744;1258;61167;-81
2023/12/01 07:58:34;;;;;;;;;;;;;;;-1.66;82.16;99961.71;106685;1262;125157;-81
2023/12/01 08:01:01;;;;;;;;;;;;;;;-1.64;82.06;99965.76;106962;1254;65081;-81
2023/12/01 08:03:28;;;;;;;;;;;;;;;-1.66;81.77;99966.52;106691;1254;70165;-83
2023/12/01 08:05:55;;;;;;;;;;;;;;;-1.67;81.69;99972.16;106482;1255;124429;-83
2023/12/01 08:08:21;;;;;;;;;;;;;;;-1.67;81.69;99973.13;106670;1255;61347;-81
2023/12/01 08:10:49;;;;;;;;;;;;;;;-1.64;81.81;99976.25;106780;1254;125389;-82
2023/12/01 08:13:16;;;;;;;;;;;;;;;-1.63;81.68;99975.13;107084;1257;65987;-82
2023/12/01 08:15:43;;;;;;;;;;;;;;;-1.64;81.54;99972.80;106995;1254;72047;-82
2023/12/01 08:18:11;;;;;;;;;;;;;;;-1.62;81.82;99971.25;106917;1254;124504;-82
2023/12/01 08:20:38;;;;;;;;;;;;;;;-1.58;81.85;99972.86;107000;1253;62401;-82
2023/12/01 08:23:05;;;;;;;;;;;;;;;-1.50;81.92;99975.04;107019;1254;124805;-82
2023/12/01 08:25:32;;;;;;;;;;;;;;;-1.40;81.96;99974.29;106883;1261;65048;-81
2023/12/01 08:27:58;;;;;;;;;;;;;;;-1.31;82.05;99971.38;106537;1256;72029;-83
2023/12/01 08:30:25;;;;;;;;;;;;;;;-1.21;82.01;99971.98;106554;1256;61226;-78
2023/12/01 08:32:52;;;;;;;;;;;;;;;-1.10;81.93;99970.51;106473;1263;61326;-83
2023/12/01 08:35:19;;;;;;;;;;;;;;;-1.03;81.76;99977.52;106694;1260;124860;-78
2023/12/01 08:37:45;;;;;;;;;;;;;;;-0.97;81.77;99980.77;106833;1254;65213;-78
2023/12/01 08:40:12;;;;;;;;;;;;;;;-0.92;81.75;99980.55;106551;1256;124549;-78
2023/12/01 08:42:40;;;;;;;;;;;;;;;-0.87;81.64;99983.05;106640;1259;61319;-78
2023/12/01 08:45:07;;;;;;;;;;;;;;;-0.84;81.60;99990.64;106637;1260;61215;-78
2023/12/01 08:47:34;;;;;;;;;;;;;;;-0.80;81.56;99993.64;106687;1255;123788;-77
2023/12/01 08:50:03;;;;;;;;;;;;;;;-0.73;81.31;99999.52;106008;1255;64788;-77
2023/12/01 08:52:30;;;;;;;;;;;;;;;-0.68;81.45;100004.67;106152;1256;123895;-78
2023/12/01 08:54:58;;;;;;;;;;;;;;;-0.64;81.57;100006.79;105843;1258;61192;-77
2023/12/01 08:57:25;;;;;;;;;;;;;;;-0.58;81.46;100012.11;106008;1255;61176;-77
2023/12/01 08:59:52;;;;;;;;;;;;;;;-0.55;81.32;100011.91;105911;1256;124232;-77
2023/12/01 09:02:19;;;;;;;;;;;;;;;-0.57;81.22;100014.73;106086;1259;65160;-78
2023/12/01 09:04:45;;;;;;;;;;;;;;;-0.61;81.19;100014.73;106580;1255;124093;-82
2023/12/01 09:07:12;;;;;;;;;;;;;;;-0.62;81.06;100015.05;107024;1260;61365;-83
2023/12/01 09:09:39;;;;;;;;;;;;;;;-0.62;80.88;100014.33;106882;1255;61221;-83
2023/12/01 09:12:05;;;;;;;;;;;;;;;-0.65;80.90;100015.00;106660;1260;124154;-78
2023/12/01 09:14:32;;;;;;;;;;;;;;;-0.66;80.91;100019.92;106796;1255;66368;-78
2023/12/01 09:16:59;;;;;;;;;;;;;;;-0.66;81.01;100022.15;106587;1255;124556;-78
2023/12/01 09:19:26;;;;;;;;;;;;;;;-0.68;80.96;100028.43;106666;1256;61370;-77
2023/12/01 09:21:52;;;;;;;;;;;;;;;-0.70;80.83;100024.54;106072;1256;61275;-77
2023/12/01 09:24:19;;;;;;;;;;;;;;;-0.71;80.81;100025.84;105871;1256;125448;-78
2023/12/01 09:26:46;;;;;;;;;;;;;;;-0.71;81.10;100024.45;105869;1257;65783;-78
2023/12/01 09:29:12;;;;;;;;;;;;;;;-0.71;80.88;100027.36;106584;1255;125394;-78
2023/12/01 09:31:46;;;;;;;;;;;;;;;-0.70;80.87;100026.27;106445;1256;61489;-78
2023/12/01 09:34:12;;;;;;;;;;;;;;;-0.65;81.09;100024.30;106472;1255;124983;-79
2023/12/01 09:36:41;;;;;;;;;;;;;;;-0.56;81.15;100018.98;106811;1256;73326;-78
2023/12/01 09:39:08;;;;;;;;;;;;;;;-0.47;81.00;100019.63;106788;1255;65002;-77
2023/12/01 09:41:35;;;;;;;;;;;;;;;-0.38;81.27;100025.69;105889;1259;125341;-77
2023/12/01 09:44:02;;;;;;;;;;;;;;;-0.28;81.06;100031.77;106188;1256;60875;-77
2023/12/01 09:46:34;;;;;;;;;;;;;;;-0.17;81.08;100027.71;106540;1260;124892;-79
2023/12/01 09:49:05;;;;;;;;;;;;;;;-0.08;81.10;100028.42;106912;1256;74719;-77
2023/12/01 09:51:36;;;;;;;;;;;;;;;0.02;80.87;100029.27;106775;1255;64972;-78
2023/12/01 09:54:03;;;;;;;;;;;;;;;0.11;80.94;100032.23;106620;1255;124907;-78
2023/12/01 09:56:30;;;;;;;;;;;;;;;0.24;80.90;100030.66;106734;1261;61170;-78
2023/12/01 09:58:57;;;;;;;;;;;;;;;0.33;80.89;100035.46;106768;1256;124380;-78
2023/12/01 10:01:24;;;;;;;;;;;;;;;0.42;80.67;100033.89;106683;1256;74666;-78
2023/12/01 10:03:51;;;;;;;;;;;;;;;0.53;80.90;100025.66;106632;1255;66538;-77
2023/12/01 10:06:18;;;;;;;;;;;;;;;0.66;80.80;100025.81;106680;1261;124657;-78
2023/12/01 10:08:44;;;;;;;;;;;;;;;0.77;80.86;100025.39;106019;1261;61244;-77
2023/12/01 10:11:17;;;;;;;;;;;;;;;0.89;80.80;100027.04;106354;1256;123977;-77
2023/12/01 10:13:44;;;;;;;;;;;;;;;0.97;80.71;100027.79;106705;1255;73278;-76
2023/12/01 10:16:11;;;;;;;;;;;;;;;1.05;80.46;100030.26;105822;1256;124150;-76
2023/12/01 10:18:38;;;;;;;;;;;;;;;1.13;80.35;100030.36;105914;1259;73333;-77
2023/12/01 10:21:07;;;;;;;;;;;;;;;1.20;80.36;100029.13;105922;1261;62611;-78
2023/12/01 10:23:36;;;;;;;;;;;;;;;1.28;80.24;100032.11;105986;1258;123681;-77
2023/12/01 10:26:07;;;;;;;;;;;;;;;1.37;80.31;100032.94;106665;1256;74924;-78
2023/12/01 10:28:41;;;;;;;;;;;;;;;1.45;80.25;100032.30;106744;1256;124180;-77
2023/12/01 10:31:07;;;;;;;;;;;;;;;1.49;80.00;100023.85;105985;1259;73674;-78
2023/12/01 10:33:35;;;;;;;;;;;;;;;1.53;79.76;100021.59;106889;1255;61175;-78
2023/12/01 10:36:02;;;;;;;;;;;;;;;1.55;79.71;100019.81;107091;1256;123619;-79
2023/12/01 10:38:29;;;;;;;;;;;;;;;1.55;79.48;100016.20;106911;1257;74747;-78
2023/12/01 10:40:57;;;;;;;;;;;;;;;1.54;79.60;100016.50;106876;1257;125009;-77
2023/12/01 10:43:26;;;;;;;;;;;;;;;1.56;79.61;100019.14;106947;1259;71256;-79
2023/12/01 10:45:53;;;;;;;;;;;;;;;1.60;79.59;100025.39;107148;1255;61226;-77
2023/12/01 10:48:20;;;;;;;;;;;;;;;1.63;79.31;100024.84;106689;1256;124219;-77
2023/12/01 10:50:47;;;;;;;;;;;;;;;1.65;79.32;100026.15;106675;1256;74729;-83
2023/12/01 10:53:17;;;;;;;;;;;;;;;1.69;79.44;100028.79;106613;1259;124808;-78
2023/12/01 10:55:47;;;;;;;;;;;;;;;1.74;79.24;100028.67;106043;1261;72882;-77
2023/12/01 10:58:25;;;;;;;;;;;;;;;1.80;79.25;100027.24;105990;1260;126349;-77
2023/12/01 11:00:52;;;;;;;;;;;;;;;1.87;79.24;100020.65;106831;1257;61349;-78
2023/12/01 11:03:19;;;;;;;;;;;;;;;1.90;79.32;100021.85;106769;1258;74709;-78
2023/12/01 11:05:50;;;;;;;;;;;;;;;1.94;79.09;100021.02;106690;1256;125552;-78
2023/12/01 11:08:22;;;;;;;;;;;;;;;1.97;78.85;100020.62;106740;1257;71383;-78
2023/12/01 11:11:04;;;;;;;;;;;;;;;1.96;78.81;100019.89;106573;1256;124030;-79
2023/12/01 11:13:53;;;;;;;;;;;;;;;1.99;78.86;100017.95;106724;1258;61167;-78
2023/12/01 11:16:20;;;;;;;;;;;;;;;2.01;78.67;100021.98;106554;1261;124386;-78
2023/12/01 11:18:47;;;;;;;;;;;;;;;2.01;78.65;100022.89;106727;1259;65547;-78
2023/12/01 11:21:16;;;;;;;;;;;;;;;2.02;78.76;100026.39;106503;1257;71410;-79
2023/12/01 11:23:42;;;;;;;;;;;;;;;2.02;78.57;100030.55;106718;1256;123995;-79
2023/12/01 11:26:10;;;;;;;;;;;;;;;2.02;78.62;100031.23;106874;1260;61144;-84
2023/12/01 11:28:45;;;;;;;;;;;;;;;2.05;78.77;100029.80;106721;1261;124107;-84
2023/12/01 11:33:57;;;;;;;;;;;;;;;2.04;78.46;100022.52;106701;1256;72382;-79
2023/12/01 11:36:31;;;;;;;;;;;;;;;2.05;78.49;100020.84;106222;1254;61222;-84
2023/12/01 11:39:11;;;;;;;;;;;;;;;2.08;78.37;100014.71;106942;1254;61144;-84
2023/12/01 11:41:47;;;;;;;;;;;;;;;2.11;78.30;100015.05;106722;1256;124570;-83
2023/12/01 11:44:17;;;;;;;;;;;;;;;2.19;78.40;100015.23;106771;1254;66345;-77
2023/12/01 11:46:44;;;;;;;;;;;;;;;2.26;78.43;100012.45;106638;1254;125393;-78
2023/12/01 11:49:17;;;;;;;;;;;;;;;2.35;78.26;100014.77;106672;1254;61353;-83
2023/12/01 11:51:44;;;;;;;;;;;;;;;2.47;78.28;100013.05;106806;1256;61370;-78
2023/12/01 11:54:14;;;;;;;;;;;;;;;2.61;78.47;100016.62;106634;1255;124472;-78
2023/12/01 11:56:45;;;;;;;;;;;;;;;2.75;78.21;100017.79;106207;1256;64779;-78
2023/12/01 11:59:11;;;;;;;;;;;;;;;2.89;77.95;100020.66;106786;1258;125997;-78
2023/12/01 12:01:38;;;;;;;;;;;;;;;2.97;77.75;100018.05;106653;1257;61418;-78
2023/12/01 12:04:06;;;;;;;;;;;;;;;3.04;77.68;100019.91;106608;1260;124535;-80
2023/12/01 12:06:33;;;;;;;;;;;;;;;3.09;77.45;100022.56;106733;1256;75577;-78
2023/12/01 12:09:06;;;;;;;;;;;;;;;3.11;77.35;100023.69;106064;1258;65030;-78
2023/12/01 12:11:35;;;;;;;;;;;;;;;3.15;77.22;100023.52;106415;1255;124043;-78
2023/12/01 12:14:02;;;;;;;;;;;;;;;3.19;76.99;100025.05;106765;1258;61300;-79
2023/12/01 12:16:29;;;;;;;;;;;;;;;3.24;76.84;100025.11;106482;1254;124603;-78
2023/12/01 12:18:57;;;;;;;;;;;;;;;3.31;76.73;100027.15;106834;1256;74538;-78
2023/12/01 12:21:23;;;;;;;;;;;;;;;3.38;76.58;100030.74;106795;1254;65033;-78
2023/12/01 12:23:50;;;;;;;;;;;;;;;3.49;76.61;100032.06;106991;1258;124036;-78
2023/12/01 12:26:20;;;;;;;;;;;;;;;3.61;76.47;100032.02;106769;1256;61157;-78
2023/12/01 12:28:52;;;;;;;;;;;;;;;3.72;76.24;100031.95;106325;1258;123984;-78
2023/12/01 12:31:25;;;;;;;;;;;;;;;3.80;76.14;100032.97;106920;1256;74722;-78
2023/12/01 12:33:53;;;;;;;;;;;;;;;3.85;75.81;100029.36;106964;1260;66086;-78
2023/12/01 12:36:21;;;;;;;;;;;;;;;3.89;75.68;100032.11;105914;1254;123491;-79
2023/12/01 12:38:48;;;;;;;;;;;;;;;3.88;75.61;100031.90;106815;1257;61190;-79